createdAt,value
2022-08-25T00:02:02.996Z,5.80
2022-08-25T00:04:30.180Z,5.95
2022-08-25T00:07:02.151Z,5.80
2022-08-25T00:09:31.535Z,5.63
2022-08-25T00:11:58.750Z,6.20
2022-08-25T00:14:29.193Z,6.10
2022-08-25T00:16:56.456Z,6.80
2022-08-25T00:19:31.616Z,5.35
2022-08-25T00:21:59.187Z,5.88
2022-08-25T00:24:26.165Z,5.88
2022-08-25T00:26:55.279Z,6.32
2022-08-25T00:29:23.138Z,6.40
2022-08-25T00:31:49.933Z,6.57
2022-08-25T00:34:20.691Z,5.53
2022-08-25T00:36:47.683Z,6.13
2022-08-25T00:39:14.617Z,5.45
2022-08-25T00:41:43.458Z,5.93
2022-08-25T00:44:13.075Z,5.55
2022-08-25T00:46:48.063Z,6.25
2022-08-25T00:49:24.880Z,5.28
2022-08-25T00:52:13.216Z,5.90
2022-08-25T00:54:47.736Z,5.10
2022-08-25T00:57:16.641Z,6.18
2022-08-25T00:59:44.393Z,5.47
2022-08-25T01:02:13.884Z,5.75
2022-08-25T01:04:45.882Z,5.72
2022-08-25T01:07:18.688Z,5.43
2022-08-25T01:09:47.626Z,5.35
2022-08-25T01:12:14.418Z,6.63
2022-08-25T01:14:42.380Z,5.38
2022-08-25T01:17:09.602Z,5.60
2022-08-25T01:19:36.337Z,5.88
2022-08-25T01:22:03.706Z,6.55
2022-08-25T01:25:07.654Z,6.60
2022-08-25T01:27:34.375Z,6.30
2022-08-25T01:30:01.069Z,6.32
2022-08-25T01:32:27.725Z,5.75
2022-08-25T01:34:54.910Z,6.55
2022-08-25T01:37:21.622Z,6.50
2022-08-25T01:39:48.498Z,6.65
2022-08-25T01:42:37.857Z,6.63
2022-08-25T01:45:05.609Z,6.03
2022-08-25T01:47:32.779Z,6.28
2022-08-25T01:49:59.523Z,6.57
2022-08-25T01:52:34.070Z,6.15
2022-08-25T01:55:00.675Z,5.75
2022-08-25T01:57:30.233Z,6.40
2022-08-25T01:59:57.443Z,6.38
2022-08-25T02:02:24.356Z,6.38
2022-08-25T02:04:53.095Z,5.55
2022-08-25T02:07:20.296Z,5.55
2022-08-25T02:09:47.076Z,5.32
2022-08-25T02:12:13.933Z,5.43
2022-08-25T02:14:40.820Z,5.38
2022-08-25T02:17:08.466Z,6.15
2022-08-25T02:19:35.214Z,5.70
2022-08-25T02:22:02.297Z,5.35
2022-08-25T02:24:29.006Z,5.80
2022-08-25T02:26:55.714Z,5.85
2022-08-25T02:29:22.747Z,5.53
2022-08-25T02:31:49.712Z,5.93
2022-08-25T02:34:16.447Z,6.35
2022-08-25T02:36:43.796Z,6.78
2022-08-25T02:39:11.925Z,6.50
2022-08-25T02:41:39.035Z,7.57
2022-08-25T02:44:06.100Z,6.50
2022-08-25T02:46:34.203Z,6.80
2022-08-25T02:49:00.959Z,7.85
2022-08-25T02:51:30.180Z,7.20
2022-08-25T02:53:58.681Z,7.43
2022-08-25T02:56:25.835Z,6.88
2022-08-25T02:58:52.649Z,7.07
2022-08-25T03:01:19.437Z,6.63
2022-08-25T03:03:47.065Z,7.05
2022-08-25T03:06:16.799Z,6.18
2022-08-25T03:08:44.261Z,6.25
2022-08-25T03:11:11.376Z,6.47
2022-08-25T03:13:38.365Z,5.97
2022-08-25T03:16:11.288Z,6.25
2022-08-25T03:18:39.925Z,5.73
2022-08-25T03:21:07.545Z,6.95
2022-08-25T03:23:34.553Z,7.18
2022-08-25T03:26:19.725Z,6.80
2022-08-25T03:28:46.392Z,6.68
2022-08-25T03:33:58.458Z,7.10
2022-08-25T03:36:25.895Z,7.03
2022-08-25T03:38:53.620Z,6.78
2022-08-25T03:41:27.757Z,6.88
2022-08-25T03:43:56.280Z,5.97
2022-08-25T03:46:29.122Z,7.00
2022-08-25T03:48:57.188Z,7.28
2022-08-25T03:51:31.323Z,7.15
2022-08-25T03:56:27.467Z,8.20
2022-08-25T03:58:55.621Z,7.32
2022-08-25T04:01:23.614Z,8.07
2022-08-25T04:03:50.682Z,8.40
2022-08-25T04:06:19.513Z,8.13
2022-08-25T04:08:47.110Z,7.72
2022-08-25T04:11:17.571Z,7.18
2022-08-25T04:13:46.524Z,7.10
2022-08-25T04:16:15.893Z,6.70
2022-08-25T04:18:43.744Z,7.43
2022-08-25T04:21:12.962Z,7.40
2022-08-25T04:23:42.823Z,6.32
2022-08-25T04:26:16.723Z,7.25
2022-08-25T04:28:43.428Z,6.32
2022-08-25T04:31:11.831Z,6.82
2022-08-25T04:33:39.267Z,6.47
2022-08-25T04:36:11.932Z,6.15
2022-08-25T04:38:40.739Z,6.50
2022-08-25T04:41:09.370Z,7.68
2022-08-25T04:43:37.277Z,9.68
2022-08-25T04:46:12.778Z,10.48
2022-08-25T04:48:40.397Z,11.43
2022-08-25T04:51:09.773Z,11.73
2022-08-25T04:53:37.128Z,11.38
2022-08-25T04:56:07.833Z,13.23
2022-08-25T04:58:35.264Z,14.77
2022-08-25T05:01:07.494Z,15.25
2022-08-25T05:03:34.978Z,15.20
2022-08-25T05:06:02.246Z,15.02
2022-08-25T05:08:29.286Z,16.30
2022-08-25T05:10:56.766Z,16.38
2022-08-25T05:13:25.621Z,16.42
2022-08-25T05:15:58.252Z,16.92
2022-08-25T05:18:29.041Z,15.77
2022-08-25T05:20:57.650Z,16.42
2022-08-25T05:23:25.318Z,16.27
2022-08-25T05:25:52.992Z,16.27
2022-08-25T05:28:21.319Z,16.65
2022-08-25T05:30:49.486Z,16.95
2022-08-25T05:33:17.304Z,17.58
2022-08-25T05:35:44.966Z,15.50
2022-08-25T05:38:15.122Z,16.73
2022-08-25T05:40:42.401Z,17.38
2022-08-25T05:43:09.218Z,15.63
2022-08-25T05:45:36.399Z,16.23
2022-08-25T05:48:03.395Z,16.30
2022-08-25T05:50:30.071Z,15.60
2022-08-25T05:52:56.752Z,16.02
2022-08-25T05:55:23.391Z,16.80
2022-08-25T05:57:50.414Z,16.63
2022-08-25T06:00:17.480Z,16.95
2022-08-25T06:02:46.287Z,16.33
2022-08-25T06:05:18.657Z,17.10
2022-08-25T06:07:47.307Z,17.42
2022-08-25T06:10:14.990Z,15.82
2022-08-25T06:12:44.814Z,16.40
2022-08-25T06:15:17.100Z,17.20
2022-08-25T06:17:44.105Z,16.45
2022-08-25T06:20:14.200Z,17.42
2022-08-25T06:22:41.964Z,17.95
2022-08-25T06:25:10.462Z,17.13
2022-08-25T06:27:37.728Z,16.10
2022-08-25T06:30:07.912Z,17.48
2022-08-25T06:32:36.973Z,17.05
2022-08-25T06:35:09.153Z,16.58
2022-08-25T06:37:36.410Z,17.33
2022-08-25T06:40:04.213Z,17.92
2022-08-25T06:42:30.995Z,16.83
2022-08-25T06:44:57.633Z,17.17
2022-08-25T06:47:24.381Z,16.70
2022-08-25T06:49:51.120Z,17.25
2022-08-25T06:52:17.876Z,16.83
2022-08-25T06:54:44.751Z,16.60
2022-08-25T06:57:16.075Z,16.75
2022-08-25T06:59:42.716Z,16.85
2022-08-25T07:02:09.992Z,15.75
2022-08-25T07:04:36.888Z,15.05
2022-08-25T07:07:04.704Z,15.85
2022-08-25T07:09:35.236Z,15.57
2022-08-25T07:12:05.656Z,14.73
2022-08-25T07:14:32.367Z,15.63
2022-08-25T07:16:59.612Z,15.10
2022-08-25T07:19:26.251Z,13.65
2022-08-25T07:21:54.225Z,14.00
2022-08-25T07:24:22.081Z,14.38
2022-08-25T07:26:49.344Z,15.50
2022-08-25T07:29:20.397Z,14.75
2022-08-25T07:31:58.597Z,14.23
2022-08-25T07:34:44.095Z,13.95
2022-08-25T07:37:10.956Z,12.85
2022-08-25T07:39:37.740Z,13.45
2022-08-25T07:42:05.417Z,13.95
2022-08-25T07:44:38.632Z,13.25
2022-08-25T07:47:05.363Z,13.57
2022-08-25T07:49:35.807Z,12.82
2022-08-25T07:52:07.006Z,13.40
2022-08-25T07:54:37.904Z,12.32
2022-08-25T07:57:07.325Z,11.70
2022-08-25T07:59:39.514Z,12.40
2022-08-25T08:02:18.543Z,12.77
2022-08-25T08:04:50.586Z,11.65
2022-08-25T08:07:18.996Z,11.45
2022-08-25T08:09:46.033Z,12.13
2022-08-25T08:12:12.889Z,13.50
2022-08-25T08:14:44.999Z,12.18
2022-08-25T08:17:13.614Z,12.65
2022-08-25T08:19:44.947Z,12.50
2022-08-25T08:22:15.022Z,13.10
2022-08-25T08:24:54.132Z,14.45
2022-08-25T08:27:21.783Z,12.10
2022-08-25T08:30:32.565Z,12.00
2022-08-25T08:33:09.636Z,11.20
2022-08-25T08:35:45.148Z,10.85
2022-08-25T08:38:17.337Z,12.60
2022-08-25T08:41:23.280Z,12.07
2022-08-25T08:43:56.530Z,11.15
2022-08-25T08:46:31.772Z,10.65
2022-08-25T08:49:06.915Z,11.18
2022-08-25T08:51:45.922Z,10.35
2022-08-25T08:54:38.419Z,10.55
2022-08-25T08:57:19.872Z,9.45
2022-08-25T08:59:51.914Z,9.75
2022-08-25T09:02:39.383Z,14.57
2022-08-25T09:05:19.914Z,9.40
2022-08-25T09:08:05.096Z,8.27
2022-08-25T09:10:45.577Z,7.90
2022-08-25T09:13:44.826Z,7.38
2022-08-25T09:16:48.055Z,6.90
2022-08-25T09:19:32.032Z,7.28
2022-08-25T09:22:35.812Z,6.97
2022-08-25T09:25:22.011Z,7.03
2022-08-25T09:28:08.297Z,7.20
2022-08-25T09:30:51.874Z,6.43
2022-08-25T09:33:22.812Z,6.53
2022-08-25T09:35:52.128Z,6.78
2022-08-25T09:38:21.507Z,5.60
2022-08-25T09:40:51.372Z,5.68
2022-08-25T09:43:22.093Z,5.78
2022-08-25T09:46:20.506Z,5.47
2022-08-25T09:48:56.565Z,6.38
2022-08-25T09:51:42.471Z,6.35
2022-08-25T09:54:15.699Z,5.63
2022-08-25T09:56:54.465Z,6.20
2022-08-25T09:59:34.952Z,5.47
2022-08-25T10:02:32.759Z,5.97
2022-08-25T10:04:59.692Z,6.22
2022-08-25T10:07:30.320Z,6.40
2022-08-25T10:10:07.707Z,5.90
2022-08-25T10:12:42.693Z,6.07
2022-08-25T10:15:37.121Z,6.15
2022-08-25T10:18:26.205Z,5.97
2022-08-25T10:21:11.710Z,5.75
2022-08-25T10:23:48.427Z,6.00
2022-08-25T10:26:35.084Z,6.30
2022-08-25T10:29:29.407Z,5.28
2022-08-25T10:32:22.771Z,4.95
2022-08-25T10:34:54.804Z,4.95
2022-08-25T10:37:48.524Z,5.40
2022-08-25T10:40:21.846Z,5.05
2022-08-25T10:42:48.608Z,4.90
2022-08-25T10:45:43.165Z,5.85
2022-08-25T10:48:22.218Z,5.10
2022-08-25T10:51:02.019Z,5.20
2022-08-25T10:53:49.068Z,5.13
2022-08-25T10:56:27.560Z,5.32
2022-08-25T10:59:09.465Z,4.55
2022-08-25T11:01:57.763Z,5.80
2022-08-25T11:04:39.950Z,5.40
2022-08-25T11:07:28.110Z,4.90
2022-08-25T11:09:59.817Z,4.80
2022-08-25T11:12:35.773Z,4.72
2022-08-25T11:15:10.233Z,4.65
2022-08-25T11:17:43.237Z,5.25
2022-08-25T11:20:26.578Z,4.40
2022-08-25T11:22:59.712Z,4.43
2022-08-25T11:25:29.516Z,4.20
2022-08-25T11:28:31.334Z,4.85
2022-08-25T11:31:00.640Z,4.53
2022-08-25T11:33:30.495Z,5.05
2022-08-25T11:36:19.307Z,4.70
2022-08-25T11:39:00.740Z,4.90
2022-08-25T11:42:01.440Z,4.97
2022-08-25T11:44:38.172Z,4.95
2022-08-25T11:47:31.844Z,5.57
2022-08-25T11:50:06.887Z,5.40
2022-08-25T11:52:34.703Z,4.65
2022-08-25T11:55:43.637Z,4.40
2022-08-25T11:58:28.153Z,4.45
2022-08-25T12:01:02.339Z,4.97
2022-08-25T12:03:32.035Z,4.82
2022-08-25T12:06:21.541Z,4.90
2022-08-25T12:08:59.413Z,4.88
2022-08-25T12:11:44.300Z,5.30
2022-08-25T12:14:28.410Z,5.47
2022-08-25T12:16:55.301Z,5.72
2022-08-25T12:19:28.867Z,4.68
2022-08-25T12:22:15.529Z,5.15
2022-08-25T12:24:50.430Z,5.15
2022-08-25T12:27:39.995Z,4.90
2022-08-25T12:30:38.445Z,4.28
2022-08-25T12:33:46.412Z,4.97
2022-08-25T12:36:27.757Z,4.65
2022-08-25T12:38:54.563Z,4.72
2022-08-25T12:41:31.055Z,5.40
2022-08-25T12:44:34.887Z,4.95
2022-08-25T12:47:29.842Z,5.15
2022-08-25T12:50:34.380Z,5.32
2022-08-25T12:55:46.404Z,4.72
2022-08-25T12:58:13.211Z,5.20
2022-08-25T13:01:01.833Z,4.90
2022-08-25T13:04:00.266Z,4.85
2022-08-25T13:06:47.363Z,4.90
2022-08-25T13:09:32.839Z,4.80
2022-08-25T13:12:21.513Z,5.43
2022-08-25T13:14:54.539Z,4.38
2022-08-25T13:17:29.043Z,5.13
2022-08-25T13:20:31.272Z,4.70
2022-08-25T13:23:00.809Z,5.32
2022-08-25T13:25:32.109Z,5.55
2022-08-25T13:28:02.915Z,5.53
2022-08-25T13:30:36.966Z,5.28
2022-08-25T13:33:19.992Z,5.20
2022-08-25T13:36:19.260Z,5.03
2022-08-25T13:38:48.475Z,4.97
2022-08-25T13:41:28.926Z,5.28
2022-08-25T13:43:57.086Z,5.32
2022-08-25T13:46:27.956Z,5.40
2022-08-25T13:49:05.289Z,4.70
2022-08-25T13:51:32.998Z,5.72
2022-08-25T13:54:21.316Z,5.30
2022-08-25T13:56:48.205Z,4.95
2022-08-25T13:59:20.999Z,6.28
2022-08-25T14:01:50.222Z,5.80
2022-08-25T14:04:51.464Z,5.25
2022-08-25T14:07:22.567Z,4.78
2022-08-25T14:09:58.211Z,4.97
2022-08-25T14:12:55.437Z,5.07
2022-08-25T14:15:22.054Z,5.80
2022-08-25T14:18:19.969Z,5.03
2022-08-25T14:20:55.802Z,5.57
2022-08-25T14:23:26.993Z,5.28
2022-08-25T14:25:55.420Z,5.50
2022-08-25T14:28:25.482Z,5.72
2022-08-25T14:30:59.035Z,6.05
2022-08-25T14:33:34.248Z,5.88
2022-08-25T14:36:04.975Z,6.07
2022-08-25T14:38:33.523Z,6.22
2022-08-25T14:41:00.536Z,6.65
2022-08-25T14:43:32.010Z,5.70
2022-08-25T14:46:00.540Z,5.20
2022-08-25T14:48:35.248Z,5.97
2022-08-25T14:51:03.603Z,5.17
2022-08-25T14:53:30.276Z,5.53
2022-08-25T14:55:58.993Z,5.50
2022-08-25T14:58:27.433Z,5.43
2022-08-25T15:00:55.311Z,5.43
2022-08-25T15:03:31.745Z,6.40
2022-08-25T15:06:00.395Z,5.50
2022-08-25T15:08:46.549Z,5.43
2022-08-25T15:11:14.472Z,6.38
2022-08-25T15:13:44.674Z,5.68
2022-08-25T15:16:41.989Z,5.72
2022-08-25T15:21:37.221Z,6.53
2022-08-25T15:24:05.984Z,5.35
2022-08-25T15:26:39.967Z,6.00
2022-08-25T15:29:06.911Z,6.35
2022-08-25T15:31:35.934Z,5.93
2022-08-25T15:34:02.761Z,5.03
2022-08-25T15:36:29.505Z,6.15
2022-08-25T15:38:56.164Z,5.78
2022-08-25T15:41:27.120Z,6.22
2022-08-25T15:43:55.535Z,6.38
2022-08-25T15:46:24.912Z,6.40
2022-08-25T15:48:51.719Z,6.53
2022-08-25T15:51:18.961Z,5.75
2022-08-25T15:53:46.189Z,6.30
2022-08-25T15:56:26.709Z,7.43
2022-08-25T15:58:55.325Z,6.55
2022-08-25T16:01:25.002Z,6.38
2022-08-25T16:03:52.611Z,5.68
2022-08-25T16:06:19.530Z,5.65
2022-08-25T16:08:46.181Z,6.72
2022-08-25T16:11:22.770Z,6.40
2022-08-25T16:13:50.624Z,6.13
2022-08-25T16:16:18.713Z,5.85
2022-08-25T16:18:46.084Z,6.32
2022-08-25T16:21:16.526Z,5.57
2022-08-25T16:23:43.271Z,6.63
2022-08-25T16:26:11.529Z,5.65
2022-08-25T16:28:43.834Z,5.68
2022-08-25T16:31:14.140Z,5.70
2022-08-25T16:36:12.178Z,6.03
2022-08-25T16:38:40.860Z,5.68
2022-08-25T16:41:09.956Z,5.57
2022-08-25T16:43:37.391Z,5.90
2022-08-25T16:46:07.941Z,5.53
2022-08-25T16:48:35.883Z,5.55
2022-08-25T16:51:07.936Z,5.55
2022-08-25T16:53:53.448Z,6.00
2022-08-25T16:56:24.803Z,5.70
2022-08-25T16:58:55.293Z,5.22
2022-08-25T17:01:25.376Z,6.25
2022-08-25T17:03:54.458Z,5.93
2022-08-25T17:06:23.701Z,5.40
2022-08-25T17:08:51.029Z,5.38
2022-08-25T17:11:29.938Z,5.18
2022-08-25T17:14:00.728Z,5.68
2022-08-25T17:16:30.021Z,5.70
2022-08-25T17:19:00.568Z,5.53
2022-08-25T17:21:31.268Z,6.32
2022-08-25T17:23:58.004Z,5.95
2022-08-25T17:26:27.764Z,5.18
2022-08-25T17:28:56.989Z,5.68
2022-08-25T17:31:26.860Z,5.80
2022-08-25T17:33:55.091Z,5.20
2022-08-25T17:36:27.045Z,5.88
2022-08-25T17:38:54.950Z,5.30
2022-08-25T17:41:23.857Z,5.05
2022-08-25T17:43:50.627Z,5.07
2022-08-25T17:46:18.125Z,5.47
2022-08-25T17:48:44.957Z,5.53
2022-08-25T17:51:12.601Z,5.10
2022-08-25T17:53:43.536Z,5.32
2022-08-25T17:56:16.870Z,5.07
2022-08-25T17:58:45.820Z,5.80
2022-08-25T18:01:22.970Z,5.68
2022-08-25T18:03:49.857Z,5.68
2022-08-25T18:06:17.036Z,5.70
2022-08-25T18:08:44.836Z,5.32
2022-08-25T18:11:20.192Z,5.50
2022-08-25T18:13:47.267Z,5.43
2022-08-25T18:16:17.244Z,5.57
2022-08-25T18:18:44.617Z,5.65
2022-08-25T18:21:16.682Z,5.65
2022-08-25T18:23:44.265Z,5.85
2022-08-25T18:26:13.055Z,5.65
2022-08-25T18:28:40.360Z,5.45
2022-08-25T18:31:12.007Z,5.75
2022-08-25T18:33:41.938Z,6.65
2022-08-25T18:36:09.737Z,6.15
2022-08-25T18:38:57.879Z,6.25
2022-08-25T18:41:26.352Z,6.22
2022-08-25T18:43:53.679Z,5.80
2022-08-25T18:46:22.589Z,6.13
2022-08-25T18:48:52.580Z,5.30
2022-08-25T18:51:23.225Z,6.13
2022-08-25T18:53:51.126Z,6.05
2022-08-25T18:56:22.400Z,5.90
2022-08-25T18:58:49.165Z,5.90
2022-08-25T19:01:18.318Z,6.32
2022-08-25T19:03:45.412Z,6.47
2022-08-25T19:06:12.228Z,6.82
2022-08-25T19:08:41.868Z,6.40
2022-08-25T19:11:09.974Z,6.82
2022-08-25T19:13:37.831Z,7.38
2022-08-25T19:16:20.223Z,6.65
2022-08-25T19:18:48.809Z,6.78
2022-08-25T19:21:15.737Z,8.15
2022-08-25T19:23:42.446Z,8.52
2022-08-25T19:26:13.969Z,7.90
2022-08-25T19:28:50.394Z,7.25
2022-08-25T19:31:18.956Z,8.13
2022-08-25T19:33:47.331Z,8.60
2022-08-25T19:36:14.153Z,8.57
2022-08-25T19:38:40.985Z,8.05
2022-08-25T19:41:10.561Z,9.00
2022-08-25T19:43:50.547Z,7.78
2022-08-25T19:46:33.393Z,8.63
2022-08-25T19:49:14.253Z,8.25
2022-08-25T19:51:44.697Z,8.02
2022-08-25T19:54:14.595Z,8.05
2022-08-25T19:56:43.894Z,8.88
2022-08-25T19:59:22.769Z,8.13
2022-08-25T20:01:49.811Z,8.40
2022-08-25T20:04:16.908Z,8.20
2022-08-25T20:06:43.717Z,7.70
2022-08-25T20:09:29.343Z,7.95
2022-08-25T20:12:02.471Z,7.72
2022-08-25T20:14:29.237Z,8.13
2022-08-25T20:16:55.974Z,8.98
2022-08-25T20:19:22.652Z,7.60
2022-08-25T20:21:49.308Z,7.05
2022-08-25T20:24:34.517Z,7.57
2022-08-25T20:27:01.882Z,7.53
2022-08-25T20:29:29.803Z,8.25
2022-08-25T20:31:56.586Z,7.45
2022-08-25T20:34:23.385Z,8.27
2022-08-25T20:36:50.673Z,7.22
2022-08-25T20:39:17.999Z,7.93
2022-08-25T20:41:48.412Z,7.70
2022-08-25T20:44:15.976Z,8.20
2022-08-25T20:46:44.304Z,7.90
2022-08-25T20:49:11.124Z,8.73
2022-08-25T20:51:38.715Z,9.20
2022-08-25T20:54:05.659Z,8.68
2022-08-25T20:56:33.009Z,8.68
2022-08-25T20:59:00.573Z,8.48
2022-08-25T21:01:37.590Z,8.75
2022-08-25T21:04:14.555Z,8.38
2022-08-25T21:06:42.046Z,8.90
2022-08-25T21:09:14.374Z,9.15
2022-08-25T21:11:43.720Z,9.00
2022-08-25T21:14:12.761Z,8.63
2022-08-25T21:16:40.905Z,8.82
2022-08-25T21:19:08.895Z,8.63
2022-08-25T21:21:38.461Z,8.90
2022-08-25T21:24:09.689Z,8.70
2022-08-25T21:26:48.546Z,9.07
2022-08-25T21:29:17.526Z,9.73
2022-08-25T21:31:45.337Z,9.15
2022-08-25T21:34:12.786Z,9.25
2022-08-25T21:36:40.101Z,10.00
2022-08-25T21:39:07.139Z,9.30
2022-08-25T21:41:36.850Z,9.88
2022-08-25T21:44:03.864Z,9.30
2022-08-25T21:46:33.576Z,9.80
2022-08-25T21:49:01.389Z,9.52
2022-08-25T21:51:40.611Z,10.20
2022-08-25T21:54:10.953Z,9.98
2022-08-25T21:56:49.957Z,10.52
2022-08-25T21:59:23.920Z,9.73
2022-08-25T22:04:25.638Z,8.95
2022-08-25T22:06:52.392Z,10.20
2022-08-25T22:09:19.374Z,10.48
2022-08-25T22:11:46.816Z,10.02
2022-08-25T22:14:14.648Z,9.00
2022-08-25T22:16:42.556Z,9.88
2022-08-25T22:19:12.352Z,9.65
2022-08-25T22:21:40.322Z,9.45
2022-08-25T22:24:07.182Z,9.20
2022-08-25T22:26:34.348Z,9.68
2022-08-25T22:29:02.105Z,10.57
2022-08-25T22:31:29.216Z,10.73
2022-08-25T22:33:57.746Z,10.18
2022-08-25T22:36:33.922Z,10.75
2022-08-25T22:39:01.519Z,9.93
2022-08-25T22:41:31.445Z,9.95
2022-08-25T22:44:00.549Z,10.45
2022-08-25T22:46:32.380Z,9.32
2022-08-25T22:48:59.876Z,10.95
2022-08-25T22:51:31.442Z,10.88
2022-08-25T22:53:59.428Z,9.90
2022-08-25T22:56:35.290Z,10.05
2022-08-25T22:59:09.948Z,10.63
2022-08-25T23:01:37.755Z,10.60
2022-08-25T23:04:07.387Z,9.05
2022-08-25T23:06:34.795Z,10.30
2022-08-25T23:09:04.880Z,10.10
2022-08-25T23:11:31.609Z,10.73
2022-08-25T23:14:02.356Z,9.95
2022-08-25T23:16:29.542Z,10.43
2022-08-25T23:18:56.238Z,9.15
2022-08-25T23:21:42.446Z,9.80
2022-08-25T23:24:11.271Z,9.95
2022-08-25T23:26:41.835Z,10.30
2022-08-25T23:29:18.778Z,9.30
2022-08-25T23:31:47.011Z,9.80
2022-08-25T23:34:15.629Z,9.82
2022-08-25T23:36:43.472Z,10.32
2022-08-25T23:39:11.306Z,9.70
2022-08-25T23:41:38.651Z,10.35
2022-08-25T23:44:06.635Z,9.70
2022-08-25T23:46:36.161Z,10.02
2022-08-25T23:49:08.242Z,10.95
2022-08-25T23:51:38.113Z,8.97
2022-08-25T23:54:09.438Z,9.82
2022-08-25T23:56:44.827Z,10.05
2022-08-25T23:59:19.589Z,10.32
